الصفحة الرئيسية
METAR-TAF:

METAR-TAF

مطار :

كاسوميغاورا, اليابان

دائرة عرض: 36-02N, خط طول: 140-12E, ارتفاع: 26 متر

مراقبة الطقس الحالي

تاريخ ووقت الإصدار 32 دقيقة قبل الساعة 06:35UTC
ريح 8 عقدة من الشرق
درجة الحرارة 24°درجة مئوية
الرطوبة 89%
ضغط 1016 hPa
الرؤية: 6000 متر
غيوم قليلة على ارتفاع 1500 قدم
غيوم متفرقة على ارتفاع 2500 قدم
غيوم مفككة على ارتفاع 3000 قدم

METAR: RJAK 160635Z 08008KT 6000 FEW015 SCT025 BKN030 24/22 Q1016 RMK 2CU015 4CU025 6CU030 A3001

زمن: 16:07 (07:07 UTC)


TAF: مفقودة

أرصاد الطقس والتوقعات من أكثر من 4000 مطار (تقارير الطقس للمطار METAR والتنبؤ بالطقس بالمطارTAF).

المحطات المتاحة هي النقط الصفراء والحمراء على الخريطة.

حرك المؤشر فوق النقطة لمعرفة اسم المحطة.

ثم انقر لمعرفة أرصاد وتوقعات الطقس.

لتغيير الخارطة: اضغط على الأزرار الخضراء مع رمز الصليب الأسود للتكبير. على الزر الأخضر مع شرطة للتصغير، أو على الأسهم الخضراء للخرائط المجاورة.


METAR-TAF: